sensor_id;sensor_type;location;lat;lon;timestamp;P1;durP1;ratioP1;P2;durP2;ratioP2
19402;SDS011;9837;48.888;8.998;2024-02-14T00:00:18;9.13;;;3.20;;
19402;SDS011;9837;48.888;8.998;2024-02-14T00:02:46;4.47;;;3.27;;
19402;SDS011;9837;48.888;8.998;2024-02-14T00:05:15;7.37;;;3.20;;
19402;SDS011;9837;48.888;8.998;2024-02-14T00:07:41;5.27;;;3.20;;
19402;SDS011;9837;48.888;8.998;2024-02-14T00:10:07;6.23;;;3.23;;
19402;SDS011;9837;48.888;8.998;2024-02-14T00:12:33;6.13;;;3.03;;
19402;SDS011;9837;48.888;8.998;2024-02-14T00:14:59;7.20;;;3.07;;
19402;SDS011;9837;48.888;8.998;2024-02-14T00:17:27;5.03;;;3.03;;
19402;SDS011;9837;48.888;8.998;2024-02-14T00:19:53;5.30;;;2.93;;
19402;SDS011;9837;48.888;8.998;2024-02-14T00:22:19;6.23;;;3.17;;
19402;SDS011;9837;48.888;8.998;2024-02-14T00:24:45;5.50;;;3.10;;
19402;SDS011;9837;48.888;8.998;2024-02-14T00:27:11;7.77;;;3.27;;
19402;SDS011;9837;48.888;8.998;2024-02-14T00:29:39;6.57;;;3.20;;
19402;SDS011;9837;48.888;8.998;2024-02-14T00:32:05;7.33;;;2.87;;
19402;SDS011;9837;48.888;8.998;2024-02-14T00:34:31;8.40;;;3.50;;
19402;SDS011;9837;48.888;8.998;2024-02-14T00:36:57;6.30;;;2.97;;
19402;SDS011;9837;48.888;8.998;2024-02-14T00:39:23;6.70;;;3.30;;
19402;SDS011;9837;48.888;8.998;2024-02-14T00:41:49;5.57;;;2.87;;
19402;SDS011;9837;48.888;8.998;2024-02-14T00:44:17;6.17;;;3.13;;
19402;SDS011;9837;48.888;8.998;2024-02-14T00:46:43;4.77;;;3.03;;
19402;SDS011;9837;48.888;8.998;2024-02-14T00:49:10;6.40;;;2.80;;
19402;SDS011;9837;48.888;8.998;2024-02-14T00:51:36;8.30;;;3.37;;
19402;SDS011;9837;48.888;8.998;2024-02-14T00:54:05;6.70;;;3.20;;
19402;SDS011;9837;48.888;8.998;2024-02-14T00:56:31;5.53;;;2.83;;
19402;SDS011;9837;48.888;8.998;2024-02-14T00:58:57;5.30;;;2.80;;
19402;SDS011;9837;48.888;8.998;2024-02-14T01:01:24;4.13;;;2.63;;
19402;SDS011;9837;48.888;8.998;2024-02-14T01:03:50;4.70;;;3.37;;
19402;SDS011;9837;48.888;8.998;2024-02-14T01:06:16;6.90;;;2.77;;
19402;SDS011;9837;48.888;8.998;2024-02-14T01:08:43;4.67;;;2.67;;
19402;SDS011;9837;48.888;8.998;2024-02-14T01:11:09;7.63;;;2.67;;
19402;SDS011;9837;48.888;8.998;2024-02-14T01:13:35;4.87;;;2.97;;
19402;SDS011;9837;48.888;8.998;2024-02-14T01:16:02;6.70;;;3.33;;
19402;SDS011;9837;48.888;8.998;2024-02-14T01:18:29;5.63;;;2.40;;
19402;SDS011;9837;48.888;8.998;2024-02-14T01:20:55;4.17;;;2.57;;
19402;SDS011;9837;48.888;8.998;2024-02-14T01:23:21;3.30;;;2.40;;
19402;SDS011;9837;48.888;8.998;2024-02-14T01:25:46;3.80;;;2.50;;
19402;SDS011;9837;48.888;8.998;2024-02-14T01:28:13;6.70;;;2.50;;
19402;SDS011;9837;48.888;8.998;2024-02-14T01:30:39;5.63;;;2.53;;
19402;SDS011;9837;48.888;8.998;2024-02-14T01:33:06;4.60;;;2.43;;
19402;SDS011;9837;48.888;8.998;2024-02-14T01:35:32;6.17;;;2.83;;
19402;SDS011;9837;48.888;8.998;2024-02-14T01:37:58;5.17;;;2.57;;
19402;SDS011;9837;48.888;8.998;2024-02-14T01:40:24;5.40;;;2.80;;
19402;SDS011;9837;48.888;8.998;2024-02-14T01:42:50;5.77;;;2.57;;
19402;SDS011;9837;48.888;8.998;2024-02-14T01:45:17;3.97;;;2.50;;
19402;SDS011;9837;48.888;8.998;2024-02-14T01:47:43;5.13;;;2.20;;
19402;SDS011;9837;48.888;8.998;2024-02-14T01:50:09;5.90;;;2.50;;
19402;SDS011;9837;48.888;8.998;2024-02-14T01:52:36;5.23;;;2.23;;
19402;SDS011;9837;48.888;8.998;2024-02-14T01:55:03;7.67;;;2.93;;
19402;SDS011;9837;48.888;8.998;2024-02-14T01:57:30;6.77;;;2.77;;
19402;SDS011;9837;48.888;8.998;2024-02-14T01:59:56;4.10;;;2.30;;
19402;SDS011;9837;48.888;8.998;2024-02-14T02:02:25;4.43;;;2.33;;
19402;SDS011;9837;48.888;8.998;2024-02-14T02:04:52;9.17;;;2.73;;
19402;SDS011;9837;48.888;8.998;2024-02-14T02:07:18;4.33;;;2.33;;
19402;SDS011;9837;48.888;8.998;2024-02-14T02:09:45;6.73;;;2.60;;
19402;SDS011;9837;48.888;8.998;2024-02-14T02:12:11;6.83;;;2.83;;
19402;SDS011;9837;48.888;8.998;2024-02-14T02:14:37;5.43;;;2.73;;
19402;SDS011;9837;48.888;8.998;2024-02-14T02:17:05;6.80;;;2.40;;
19402;SDS011;9837;48.888;8.998;2024-02-14T02:19:33;4.67;;;2.30;;
19402;SDS011;9837;48.888;8.998;2024-02-14T02:21:59;3.93;;;2.33;;
19402;SDS011;9837;48.888;8.998;2024-02-14T02:24:25;6.37;;;2.60;;
19402;SDS011;9837;48.888;8.998;2024-02-14T02:26:51;3.80;;;2.20;;
19402;SDS011;9837;48.888;8.998;2024-02-14T02:29:16;5.90;;;2.60;;
19402;SDS011;9837;48.888;8.998;2024-02-14T02:31:44;7.20;;;2.60;;
19402;SDS011;9837;48.888;8.998;2024-02-14T02:34:10;5.33;;;2.67;;
19402;SDS011;9837;48.888;8.998;2024-02-14T02:36:36;2.90;;;2.23;;
19402;SDS011;9837;48.888;8.998;2024-02-14T02:39:03;5.73;;;2.53;;
19402;SDS011;9837;48.888;8.998;2024-02-14T02:41:29;6.30;;;2.80;;
19402;SDS011;9837;48.888;8.998;2024-02-14T02:43:56;4.50;;;2.43;;
19402;SDS011;9837;48.888;8.998;2024-02-14T02:46:22;5.77;;;2.90;;
19402;SDS011;9837;48.888;8.998;2024-02-14T02:48:50;5.87;;;3.03;;
19402;SDS011;9837;48.888;8.998;2024-02-14T02:51:20;6.80;;;2.80;;
19402;SDS011;9837;48.888;8.998;2024-02-14T02:53:46;4.50;;;2.67;;
19402;SDS011;9837;48.888;8.998;2024-02-14T02:56:12;5.27;;;3.10;;
19402;SDS011;9837;48.888;8.998;2024-02-14T02:58:39;3.87;;;3.30;;
19402;SDS011;9837;48.888;8.998;2024-02-14T03:01:08;6.73;;;3.00;;
19402;SDS011;9837;48.888;8.998;2024-02-14T03:03:34;5.37;;;3.00;;
19402;SDS011;9837;48.888;8.998;2024-02-14T03:06:01;8.87;;;3.30;;
19402;SDS011;9837;48.888;8.998;2024-02-14T03:08:28;3.23;;;2.70;;
19402;SDS011;9837;48.888;8.998;2024-02-14T03:10:55;4.90;;;3.30;;
19402;SDS011;9837;48.888;8.998;2024-02-14T03:13:24;6.23;;;2.97;;
19402;SDS011;9837;48.888;8.998;2024-02-14T03:15:51;4.73;;;3.30;;
19402;SDS011;9837;48.888;8.998;2024-02-14T03:18:17;10.50;;;3.80;;
19402;SDS011;9837;48.888;8.998;2024-02-14T03:20:43;6.43;;;3.33;;
19402;SDS011;9837;48.888;8.998;2024-02-14T03:23:09;4.23;;;3.00;;
19402;SDS011;9837;48.888;8.998;2024-02-14T03:25:35;5.43;;;3.00;;
19402;SDS011;9837;48.888;8.998;2024-02-14T03:28:01;6.87;;;3.10;;
19402;SDS011;9837;48.888;8.998;2024-02-14T03:30:29;6.23;;;3.00;;
19402;SDS011;9837;48.888;8.998;2024-02-14T03:32:56;3.13;;;2.50;;
19402;SDS011;9837;48.888;8.998;2024-02-14T03:35:22;6.97;;;3.07;;
19402;SDS011;9837;48.888;8.998;2024-02-14T03:37:48;6.40;;;3.27;;
19402;SDS011;9837;48.888;8.998;2024-02-14T03:40:14;5.80;;;2.93;;
19402;SDS011;9837;48.888;8.998;2024-02-14T03:42:40;11.97;;;2.70;;
19402;SDS011;9837;48.888;8.998;2024-02-14T03:45:07;6.87;;;2.30;;
19402;SDS011;9837;48.888;8.998;2024-02-14T03:47:33;3.07;;;2.23;;
19402;SDS011;9837;48.888;8.998;2024-02-14T03:49:59;5.87;;;2.40;;
19402;SDS011;9837;48.888;8.998;2024-02-14T03:52:25;5.30;;;2.80;;
19402;SDS011;9837;48.888;8.998;2024-02-14T03:54:51;6.87;;;2.50;;
19402;SDS011;9837;48.888;8.998;2024-02-14T03:57:17;5.00;;;2.60;;
19402;SDS011;9837;48.888;8.998;2024-02-14T03:59:43;8.00;;;3.10;;
19402;SDS011;9837;48.888;8.998;2024-02-14T04:02:09;31.17;;;12.80;;
19402;SDS011;9837;48.888;8.998;2024-02-14T04:04:36;6.93;;;2.23;;
19402;SDS011;9837;48.888;8.998;2024-02-14T04:07:03;6.07;;;2.87;;
19402;SDS011;9837;48.888;8.998;2024-02-14T04:09:29;4.67;;;2.97;;
19402;SDS011;9837;48.888;8.998;2024-02-14T04:11:55;4.67;;;2.70;;
19402;SDS011;9837;48.888;8.998;2024-02-14T04:14:21;6.13;;;2.47;;
19402;SDS011;9837;48.888;8.998;2024-02-14T04:16:47;4.37;;;2.47;;
19402;SDS011;9837;48.888;8.998;2024-02-14T04:19:13;8.80;;;2.77;;
19402;SDS011;9837;48.888;8.998;2024-02-14T04:21:42;5.27;;;2.93;;
19402;SDS011;9837;48.888;8.998;2024-02-14T04:24:08;5.60;;;2.87;;
19402;SDS011;9837;48.888;8.998;2024-02-14T04:26:34;6.10;;;2.50;;
19402;SDS011;9837;48.888;8.998;2024-02-14T04:29:00;4.77;;;2.60;;
19402;SDS011;9837;48.888;8.998;2024-02-14T04:31:26;4.50;;;2.70;;
19402;SDS011;9837;48.888;8.998;2024-02-14T04:33:52;3.93;;;2.40;;
19402;SDS011;9837;48.888;8.998;2024-02-14T04:36:19;5.93;;;2.60;;
19402;SDS011;9837;48.888;8.998;2024-02-14T04:38:46;5.93;;;3.27;;
19402;SDS011;9837;48.888;8.998;2024-02-14T04:41:12;5.13;;;2.60;;
19402;SDS011;9837;48.888;8.998;2024-02-14T04:43:39;5.83;;;2.63;;
19402;SDS011;9837;48.888;8.998;2024-02-14T04:46:05;6.73;;;3.40;;
19402;SDS011;9837;48.888;8.998;2024-02-14T04:48:35;8.77;;;3.83;;
19402;SDS011;9837;48.888;8.998;2024-02-14T04:51:02;8.67;;;3.30;;
19402;SDS011;9837;48.888;8.998;2024-02-14T04:53:28;6.40;;;2.93;;
19402;SDS011;9837;48.888;8.998;2024-02-14T04:55:54;4.90;;;2.60;;
19402;SDS011;9837;48.888;8.998;2024-02-14T04:58:20;5.43;;;2.37;;
19402;SDS011;9837;48.888;8.998;2024-02-14T05:00:46;8.73;;;3.47;;
19402;SDS011;9837;48.888;8.998;2024-02-14T05:03:12;9.97;;;4.33;;
19402;SDS011;9837;48.888;8.998;2024-02-14T05:05:38;7.37;;;3.63;;
19402;SDS011;9837;48.888;8.998;2024-02-14T05:08:04;7.00;;;3.67;;
19402;SDS011;9837;48.888;8.998;2024-02-14T05:10:30;6.23;;;3.37;;
19402;SDS011;9837;48.888;8.998;2024-02-14T05:12:56;14.93;;;5.40;;
19402;SDS011;9837;48.888;8.998;2024-02-14T05:15:22;4.73;;;2.10;;
19402;SDS011;9837;48.888;8.998;2024-02-14T05:17:48;4.23;;;2.50;;
19402;SDS011;9837;48.888;8.998;2024-02-14T05:20:15;4.40;;;2.40;;
19402;SDS011;9837;48.888;8.998;2024-02-14T05:22:41;3.77;;;2.43;;
19402;SDS011;9837;48.888;8.998;2024-02-14T05:25:07;3.00;;;2.10;;
19402;SDS011;9837;48.888;8.998;2024-02-14T05:27:34;6.13;;;2.90;;
19402;SDS011;9837;48.888;8.998;2024-02-14T05:30:00;9.00;;;4.10;;
19402;SDS011;9837;48.888;8.998;2024-02-14T05:32:25;7.80;;;2.63;;
19402;SDS011;9837;48.888;8.998;2024-02-14T05:34:51;5.40;;;3.37;;
19402;SDS011;9837;48.888;8.998;2024-02-14T05:37:17;6.60;;;2.23;;
19402;SDS011;9837;48.888;8.998;2024-02-14T05:39:43;3.57;;;2.30;;
19402;SDS011;9837;48.888;8.998;2024-02-14T05:42:09;5.47;;;3.50;;
19402;SDS011;9837;48.888;8.998;2024-02-14T05:44:35;4.77;;;2.90;;
19402;SDS011;9837;48.888;8.998;2024-02-14T05:47:01;4.13;;;2.63;;
19402;SDS011;9837;48.888;8.998;2024-02-14T05:49:27;7.87;;;3.63;;
19402;SDS011;9837;48.888;8.998;2024-02-14T05:51:52;5.90;;;2.67;;
19402;SDS011;9837;48.888;8.998;2024-02-14T05:54:18;9.33;;;3.10;;
19402;SDS011;9837;48.888;8.998;2024-02-14T05:56:44;6.57;;;3.20;;
19402;SDS011;9837;48.888;8.998;2024-02-14T05:59:10;5.90;;;2.90;;
19402;SDS011;9837;48.888;8.998;2024-02-14T06:01:36;5.33;;;2.50;;
19402;SDS011;9837;48.888;8.998;2024-02-14T06:04:02;4.07;;;2.73;;
19402;SDS011;9837;48.888;8.998;2024-02-14T06:06:28;3.57;;;2.20;;
19402;SDS011;9837;48.888;8.998;2024-02-14T06:08:54;6.53;;;2.50;;
19402;SDS011;9837;48.888;8.998;2024-02-14T06:11:22;3.60;;;2.23;;
19402;SDS011;9837;48.888;8.998;2024-02-14T06:13:48;4.73;;;2.20;;
19402;SDS011;9837;48.888;8.998;2024-02-14T06:16:14;8.40;;;2.37;;
19402;SDS011;9837;48.888;8.998;2024-02-14T06:18:40;4.33;;;2.70;;
19402;SDS011;9837;48.888;8.998;2024-02-14T06:21:06;5.10;;;2.33;;
19402;SDS011;9837;48.888;8.998;2024-02-14T06:23:32;5.17;;;2.40;;
19402;SDS011;9837;48.888;8.998;2024-02-14T06:25:58;4.20;;;2.13;;
19402;SDS011;9837;48.888;8.998;2024-02-14T06:28:24;5.67;;;2.70;;
19402;SDS011;9837;48.888;8.998;2024-02-14T06:30:50;3.37;;;1.90;;
19402;SDS011;9837;48.888;8.998;2024-02-14T06:33:15;5.33;;;1.90;;
19402;SDS011;9837;48.888;8.998;2024-02-14T06:35:41;6.10;;;2.23;;
19402;SDS011;9837;48.888;8.998;2024-02-14T06:38:07;3.37;;;2.30;;
19402;SDS011;9837;48.888;8.998;2024-02-14T06:40:33;5.30;;;1.93;;
19402;SDS011;9837;48.888;8.998;2024-02-14T06:42:59;5.47;;;1.90;;
19402;SDS011;9837;48.888;8.998;2024-02-14T06:45:25;3.27;;;1.83;;
19402;SDS011;9837;48.888;8.998;2024-02-14T06:47:52;3.30;;;1.80;;
19402;SDS011;9837;48.888;8.998;2024-02-14T06:50:19;2.73;;;1.93;;
19402;SDS011;9837;48.888;8.998;2024-02-14T06:52:45;5.70;;;2.30;;
19402;SDS011;9837;48.888;8.998;2024-02-14T06:55:11;4.10;;;2.13;;
19402;SDS011;9837;48.888;8.998;2024-02-14T06:57:38;4.13;;;2.00;;
19402;SDS011;9837;48.888;8.998;2024-02-14T07:00:03;6.17;;;2.10;;
19402;SDS011;9837;48.888;8.998;2024-02-14T07:02:33;5.40;;;2.20;;
19402;SDS011;9837;48.888;8.998;2024-02-14T07:04:59;4.43;;;2.00;;
19402;SDS011;9837;48.888;8.998;2024-02-14T07:07:27;2.37;;;1.73;;
19402;SDS011;9837;48.888;8.998;2024-02-14T07:09:53;4.80;;;2.03;;
19402;SDS011;9837;48.888;8.998;2024-02-14T07:12:19;4.60;;;2.10;;
19402;SDS011;9837;48.888;8.998;2024-02-14T07:14:46;8.40;;;2.00;;
19402;SDS011;9837;48.888;8.998;2024-02-14T07:17:12;4.17;;;1.90;;
19402;SDS011;9837;48.888;8.998;2024-02-14T07:19:38;3.60;;;1.90;;
19402;SDS011;9837;48.888;8.998;2024-02-14T07:22:04;5.23;;;1.50;;
19402;SDS011;9837;48.888;8.998;2024-02-14T07:24:30;2.57;;;1.33;;
19402;SDS011;9837;48.888;8.998;2024-02-14T07:26:56;5.80;;;2.27;;
19402;SDS011;9837;48.888;8.998;2024-02-14T07:29:22;3.43;;;1.90;;
19402;SDS011;9837;48.888;8.998;2024-02-14T07:31:47;3.53;;;1.90;;
19402;SDS011;9837;48.888;8.998;2024-02-14T07:34:13;3.07;;;1.80;;
19402;SDS011;9837;48.888;8.998;2024-02-14T07:36:39;6.40;;;2.57;;
19402;SDS011;9837;48.888;8.998;2024-02-14T07:39:11;8.13;;;2.57;;
19402;SDS011;9837;48.888;8.998;2024-02-14T07:41:36;6.37;;;2.30;;
19402;SDS011;9837;48.888;8.998;2024-02-14T07:44:02;5.67;;;2.50;;
19402;SDS011;9837;48.888;8.998;2024-02-14T07:46:29;7.73;;;2.50;;
19402;SDS011;9837;48.888;8.998;2024-02-14T07:48:56;4.60;;;2.20;;
19402;SDS011;9837;48.888;8.998;2024-02-14T07:51:22;3.80;;;1.80;;
19402;SDS011;9837;48.888;8.998;2024-02-14T07:53:48;3.20;;;1.77;;
19402;SDS011;9837;48.888;8.998;2024-02-14T07:56:15;3.87;;;1.97;;
19402;SDS011;9837;48.888;8.998;2024-02-14T07:58:43;4.40;;;1.87;;
19402;SDS011;9837;48.888;8.998;2024-02-14T08:01:09;4.80;;;3.47;;
19402;SDS011;9837;48.888;8.998;2024-02-14T08:03:35;4.27;;;2.27;;
19402;SDS011;9837;48.888;8.998;2024-02-14T08:06:01;2.60;;;2.00;;
19402;SDS011;9837;48.888;8.998;2024-02-14T08:08:27;4.60;;;2.13;;
19402;SDS011;9837;48.888;8.998;2024-02-14T08:10:53;3.20;;;2.43;;
19402;SDS011;9837;48.888;8.998;2024-02-14T08:13:20;5.10;;;2.03;;
19402;SDS011;9837;48.888;8.998;2024-02-14T08:15:45;2.50;;;1.80;;
19402;SDS011;9837;48.888;8.998;2024-02-14T08:18:12;6.17;;;2.60;;
19402;SDS011;9837;48.888;8.998;2024-02-14T08:20:38;5.20;;;2.40;;
19402;SDS011;9837;48.888;8.998;2024-02-14T08:23:04;3.53;;;1.50;;
19402;SDS011;9837;48.888;8.998;2024-02-14T08:25:30;3.77;;;2.13;;
19402;SDS011;9837;48.888;8.998;2024-02-14T08:27:56;2.53;;;2.00;;
19402;SDS011;9837;48.888;8.998;2024-02-14T08:30:22;4.13;;;1.80;;
19402;SDS011;9837;48.888;8.998;2024-02-14T08:32:48;6.37;;;1.80;;
19402;SDS011;9837;48.888;8.998;2024-02-14T08:35:13;4.87;;;2.23;;
19402;SDS011;9837;48.888;8.998;2024-02-14T08:37:40;5.13;;;1.90;;
19402;SDS011;9837;48.888;8.998;2024-02-14T08:40:06;7.23;;;1.97;;
19402;SDS011;9837;48.888;8.998;2024-02-14T08:42:33;1.83;;;1.30;;
19402;SDS011;9837;48.888;8.998;2024-02-14T08:44:59;6.27;;;1.70;;
19402;SDS011;9837;48.888;8.998;2024-02-14T08:47:25;6.67;;;2.37;;
19402;SDS011;9837;48.888;8.998;2024-02-14T08:49:51;3.93;;;1.90;;
19402;SDS011;9837;48.888;8.998;2024-02-14T08:52:17;3.67;;;1.63;;
19402;SDS011;9837;48.888;8.998;2024-02-14T08:54:43;3.67;;;1.83;;
19402;SDS011;9837;48.888;8.998;2024-02-14T08:57:09;3.83;;;1.77;;
19402;SDS011;9837;48.888;8.998;2024-02-14T08:59:35;4.40;;;1.83;;
19402;SDS011;9837;48.888;8.998;2024-02-14T09:02:01;2.27;;;1.57;;
19402;SDS011;9837;48.888;8.998;2024-02-14T09:04:27;5.53;;;2.10;;
19402;SDS011;9837;48.888;8.998;2024-02-14T09:06:53;3.80;;;2.00;;
19402;SDS011;9837;48.888;8.998;2024-02-14T09:09:19;4.23;;;2.07;;
19402;SDS011;9837;48.888;8.998;2024-02-14T09:11:45;4.40;;;2.30;;
19402;SDS011;9837;48.888;8.998;2024-02-14T09:14:12;2.40;;;1.50;;
19402;SDS011;9837;48.888;8.998;2024-02-14T09:16:37;5.87;;;1.80;;
19402;SDS011;9837;48.888;8.998;2024-02-14T09:19:04;3.63;;;2.10;;
19402;SDS011;9837;48.888;8.998;2024-02-14T09:21:32;4.17;;;1.80;;
19402;SDS011;9837;48.888;8.998;2024-02-14T09:24:00;4.63;;;2.00;;
19402;SDS011;9837;48.888;8.998;2024-02-14T09:26:26;2.03;;;1.53;;
19402;SDS011;9837;48.888;8.998;2024-02-14T09:28:52;3.17;;;1.73;;
19402;SDS011;9837;48.888;8.998;2024-02-14T09:31:18;2.77;;;1.60;;
19402;SDS011;9837;48.888;8.998;2024-02-14T09:33:45;4.33;;;1.50;;
19402;SDS011;9837;48.888;8.998;2024-02-14T09:36:12;3.53;;;2.17;;
19402;SDS011;9837;48.888;8.998;2024-02-14T09:38:39;3.00;;;1.87;;
19402;SDS011;9837;48.888;8.998;2024-02-14T09:41:06;2.03;;;1.80;;
19402;SDS011;9837;48.888;8.998;2024-02-14T09:43:42;4.37;;;1.87;;
19402;SDS011;9837;48.888;8.998;2024-02-14T09:46:09;4.07;;;1.60;;
19402;SDS011;9837;48.888;8.998;2024-02-14T09:48:39;4.67;;;2.00;;
19402;SDS011;9837;48.888;8.998;2024-02-14T09:51:08;3.93;;;1.93;;
19402;SDS011;9837;48.888;8.998;2024-02-14T09:53:35;5.17;;;1.40;;
19402;SDS011;9837;48.888;8.998;2024-02-14T09:56:02;3.17;;;1.90;;
19402;SDS011;9837;48.888;8.998;2024-02-14T09:58:28;4.50;;;2.30;;
19402;SDS011;9837;48.888;8.998;2024-02-14T10:00:54;2.27;;;1.63;;
19402;SDS011;9837;48.888;8.998;2024-02-14T10:03:20;2.80;;;1.70;;
19402;SDS011;9837;48.888;8.998;2024-02-14T10:05:46;5.13;;;1.63;;
19402;SDS011;9837;48.888;8.998;2024-02-14T10:08:12;4.47;;;1.60;;
19402;SDS011;9837;48.888;8.998;2024-02-14T10:10:39;8.53;;;1.90;;
19402;SDS011;9837;48.888;8.998;2024-02-14T10:13:05;4.60;;;1.90;;
19402;SDS011;9837;48.888;8.998;2024-02-14T10:15:32;2.33;;;1.67;;
19402;SDS011;9837;48.888;8.998;2024-02-14T10:17:58;2.50;;;1.70;;
19402;SDS011;9837;48.888;8.998;2024-02-14T10:20:24;2.10;;;1.53;;
19402;SDS011;9837;48.888;8.998;2024-02-14T10:22:51;3.87;;;1.73;;
19402;SDS011;9837;48.888;8.998;2024-02-14T10:25:17;1.70;;;1.30;;
19402;SDS011;9837;48.888;8.998;2024-02-14T10:27:44;4.70;;;1.50;;
19402;SDS011;9837;48.888;8.998;2024-02-14T10:30:11;5.00;;;1.57;;
19402;SDS011;9837;48.888;8.998;2024-02-14T10:32:37;2.57;;;1.50;;
19402;SDS011;9837;48.888;8.998;2024-02-14T10:35:04;4.63;;;1.40;;
19402;SDS011;9837;48.888;8.998;2024-02-14T10:37:33;2.47;;;1.40;;
19402;SDS011;9837;48.888;8.998;2024-02-14T10:40:00;4.73;;;1.60;;
19402;SDS011;9837;48.888;8.998;2024-02-14T10:42:27;2.70;;;1.40;;
19402;SDS011;9837;48.888;8.998;2024-02-14T10:44:54;1.70;;;1.20;;
19402;SDS011;9837;48.888;8.998;2024-02-14T10:47:20;2.73;;;1.20;;
19402;SDS011;9837;48.888;8.998;2024-02-14T10:49:46;3.43;;;1.30;;
19402;SDS011;9837;48.888;8.998;2024-02-14T10:52:15;1.40;;;1.20;;
19402;SDS011;9837;48.888;8.998;2024-02-14T10:54:42;2.13;;;1.30;;
19402;SDS011;9837;48.888;8.998;2024-02-14T10:57:08;1.53;;;1.23;;
19402;SDS011;9837;48.888;8.998;2024-02-14T10:59:38;3.73;;;1.60;;
19402;SDS011;9837;48.888;8.998;2024-02-14T11:02:08;2.07;;;1.33;;
19402;SDS011;9837;48.888;8.998;2024-02-14T11:04:34;2.07;;;1.43;;
19402;SDS011;9837;48.888;8.998;2024-02-14T11:07:00;4.33;;;1.13;;
19402;SDS011;9837;48.888;8.998;2024-02-14T11:09:36;1.70;;;0.97;;
19402;SDS011;9837;48.888;8.998;2024-02-14T11:12:08;2.77;;;1.43;;
19402;SDS011;9837;48.888;8.998;2024-02-14T11:14:35;3.40;;;1.70;;
19402;SDS011;9837;48.888;8.998;2024-02-14T11:17:03;3.17;;;1.97;;
19402;SDS011;9837;48.888;8.998;2024-02-14T11:19:32;5.10;;;2.30;;
19402;SDS011;9837;48.888;8.998;2024-02-14T11:22:09;5.53;;;2.00;;
19402;SDS011;9837;48.888;8.998;2024-02-14T11:24:38;5.43;;;2.10;;
19402;SDS011;9837;48.888;8.998;2024-02-14T11:27:09;4.10;;;2.17;;
19402;SDS011;9837;48.888;8.998;2024-02-14T11:29:38;5.43;;;1.83;;
19402;SDS011;9837;48.888;8.998;2024-02-14T11:32:16;5.90;;;2.03;;
19402;SDS011;9837;48.888;8.998;2024-02-14T11:34:43;3.87;;;1.87;;
19402;SDS011;9837;48.888;8.998;2024-02-14T11:37:09;6.10;;;1.67;;
19402;SDS011;9837;48.888;8.998;2024-02-14T11:39:35;6.27;;;2.07;;
19402;SDS011;9837;48.888;8.998;2024-02-14T11:42:02;1.60;;;1.37;;
19402;SDS011;9837;48.888;8.998;2024-02-14T11:44:29;5.07;;;1.80;;
19402;SDS011;9837;48.888;8.998;2024-02-14T11:46:55;4.63;;;1.97;;
19402;SDS011;9837;48.888;8.998;2024-02-14T11:49:21;3.30;;;1.60;;
19402;SDS011;9837;48.888;8.998;2024-02-14T11:51:47;1.90;;;1.37;;
19402;SDS011;9837;48.888;8.998;2024-02-14T11:54:13;4.37;;;1.30;;
19402;SDS011;9837;48.888;8.998;2024-02-14T11:56:40;1.23;;;0.90;;
19402;SDS011;9837;48.888;8.998;2024-02-14T11:59:07;1.20;;;0.70;;
19402;SDS011;9837;48.888;8.998;2024-02-14T12:01:35;1.07;;;0.70;;
19402;SDS011;9837;48.888;8.998;2024-02-14T12:04:03;1.50;;;0.90;;
19402;SDS011;9837;48.888;8.998;2024-02-14T12:06:32;3.20;;;0.80;;
19402;SDS011;9837;48.888;8.998;2024-02-14T12:09:02;0.77;;;0.50;;
19402;SDS011;9837;48.888;8.998;2024-02-14T12:11:31;3.77;;;0.70;;
19402;SDS011;9837;48.888;8.998;2024-02-14T12:14:02;1.13;;;0.70;;
19402;SDS011;9837;48.888;8.998;2024-02-14T12:16:28;0.60;;;0.60;;
19402;SDS011;9837;48.888;8.998;2024-02-14T12:19:05;1.00;;;0.90;;
19402;SDS011;9837;48.888;8.998;2024-02-14T12:21:33;2.50;;;0.90;;
19402;SDS011;9837;48.888;8.998;2024-02-14T12:24:12;1.13;;;0.57;;
19402;SDS011;9837;48.888;8.998;2024-02-14T12:26:39;0.90;;;0.67;;
19402;SDS011;9837;48.888;8.998;2024-02-14T12:29:06;1.23;;;0.90;;
19402;SDS011;9837;48.888;8.998;2024-02-14T12:31:32;0.87;;;0.60;;
19402;SDS011;9837;48.888;8.998;2024-02-14T12:33:59;1.43;;;0.87;;
19402;SDS011;9837;48.888;8.998;2024-02-14T12:36:27;0.83;;;0.63;;
19402;SDS011;9837;48.888;8.998;2024-02-14T12:38:56;0.60;;;0.60;;
19402;SDS011;9837;48.888;8.998;2024-02-14T12:41:22;1.60;;;0.43;;
19402;SDS011;9837;48.888;8.998;2024-02-14T12:43:51;0.90;;;0.50;;
19402;SDS011;9837;48.888;8.998;2024-02-14T12:46:16;1.17;;;0.70;;
19402;SDS011;9837;48.888;8.998;2024-02-14T12:48:42;0.50;;;0.50;;
19402;SDS011;9837;48.888;8.998;2024-02-14T12:51:09;1.13;;;0.60;;
19402;SDS011;9837;48.888;8.998;2024-02-14T12:53:35;0.60;;;0.60;;
19402;SDS011;9837;48.888;8.998;2024-02-14T12:56:01;1.20;;;0.70;;
19402;SDS011;9837;48.888;8.998;2024-02-14T12:58:29;0.93;;;0.60;;
19402;SDS011;9837;48.888;8.998;2024-02-14T13:00:55;1.60;;;0.80;;
19402;SDS011;9837;48.888;8.998;2024-02-14T13:03:21;2.03;;;0.80;;
19402;SDS011;9837;48.888;8.998;2024-02-14T13:05:47;2.83;;;0.63;;
19402;SDS011;9837;48.888;8.998;2024-02-14T13:08:13;0.80;;;0.63;;
19402;SDS011;9837;48.888;8.998;2024-02-14T13:10:41;0.73;;;0.50;;
19402;SDS011;9837;48.888;8.998;2024-02-14T13:13:07;1.13;;;0.60;;
19402;SDS011;9837;48.888;8.998;2024-02-14T13:15:33;0.73;;;0.67;;
19402;SDS011;9837;48.888;8.998;2024-02-14T13:17:59;0.70;;;0.60;;
19402;SDS011;9837;48.888;8.998;2024-02-14T13:20:25;0.47;;;0.47;;
19402;SDS011;9837;48.888;8.998;2024-02-14T13:22:51;0.53;;;0.53;;
19402;SDS011;9837;48.888;8.998;2024-02-14T13:25:17;1.10;;;0.80;;
19402;SDS011;9837;48.888;8.998;2024-02-14T13:27:43;0.87;;;0.40;;
19402;SDS011;9837;48.888;8.998;2024-02-14T13:30:09;0.43;;;0.43;;
19402;SDS011;9837;48.888;8.998;2024-02-14T13:32:35;0.40;;;0.40;;
19402;SDS011;9837;48.888;8.998;2024-02-14T13:35:01;0.40;;;0.37;;
19402;SDS011;9837;48.888;8.998;2024-02-14T13:37:27;0.30;;;0.30;;
19402;SDS011;9837;48.888;8.998;2024-02-14T13:39:53;1.57;;;0.30;;
19402;SDS011;9837;48.888;8.998;2024-02-14T13:42:20;0.80;;;0.60;;
19402;SDS011;9837;48.888;8.998;2024-02-14T13:44:47;0.60;;;0.30;;
19402;SDS011;9837;48.888;8.998;2024-02-14T13:47:13;0.30;;;0.30;;
19402;SDS011;9837;48.888;8.998;2024-02-14T13:49:43;0.30;;;0.30;;
19402;SDS011;9837;48.888;8.998;2024-02-14T13:52:09;0.50;;;0.50;;
19402;SDS011;9837;48.888;8.998;2024-02-14T13:54:35;0.70;;;0.70;;
19402;SDS011;9837;48.888;8.998;2024-02-14T13:57:01;0.90;;;0.60;;
19402;SDS011;9837;48.888;8.998;2024-02-14T13:59:27;0.80;;;0.40;;
19402;SDS011;9837;48.888;8.998;2024-02-14T14:01:54;0.53;;;0.43;;
19402;SDS011;9837;48.888;8.998;2024-02-14T14:04:20;0.77;;;0.77;;
19402;SDS011;9837;48.888;8.998;2024-02-14T14:06:46;0.50;;;0.50;;
19402;SDS011;9837;48.888;8.998;2024-02-14T14:09:12;0.70;;;0.70;;
19402;SDS011;9837;48.888;8.998;2024-02-14T14:11:38;1.33;;;0.93;;
19402;SDS011;9837;48.888;8.998;2024-02-14T14:14:04;2.13;;;0.70;;
19402;SDS011;9837;48.888;8.998;2024-02-14T14:16:30;2.57;;;0.60;;
19402;SDS011;9837;48.888;8.998;2024-02-14T14:18:58;0.33;;;0.33;;
19402;SDS011;9837;48.888;8.998;2024-02-14T14:21:24;0.43;;;0.43;;
19402;SDS011;9837;48.888;8.998;2024-02-14T14:23:50;0.50;;;0.50;;
19402;SDS011;9837;48.888;8.998;2024-02-14T14:26:16;0.80;;;0.40;;
19402;SDS011;9837;48.888;8.998;2024-02-14T14:28:42;2.33;;;0.70;;
19402;SDS011;9837;48.888;8.998;2024-02-14T14:31:08;1.00;;;0.90;;
19402;SDS011;9837;48.888;8.998;2024-02-14T14:33:37;0.60;;;0.60;;
19402;SDS011;9837;48.888;8.998;2024-02-14T14:36:03;0.67;;;0.57;;
19402;SDS011;9837;48.888;8.998;2024-02-14T14:38:30;0.67;;;0.50;;
19402;SDS011;9837;48.888;8.998;2024-02-14T14:40:56;0.30;;;0.30;;
19402;SDS011;9837;48.888;8.998;2024-02-14T14:43:24;0.63;;;0.60;;
19402;SDS011;9837;48.888;8.998;2024-02-14T14:45:50;0.80;;;0.80;;
19402;SDS011;9837;48.888;8.998;2024-02-14T14:48:17;0.77;;;0.70;;
19402;SDS011;9837;48.888;8.998;2024-02-14T14:50:43;0.67;;;0.67;;
19402;SDS011;9837;48.888;8.998;2024-02-14T14:53:09;1.17;;;0.80;;
19402;SDS011;9837;48.888;8.998;2024-02-14T14:55:51;0.93;;;0.87;;